Time;durP1;ratioP1;P1;durP2;ratioP2;P2;SDS_P1;SDS_P2;PMS_P1;PMS_P2;Temp;Humidity;BMP_temperature;BMP_pressure;BME280_temperature;BME280_humidity;BME280_pressure;Samples;Min_cycle;Max_cycle;Signal;HPM_P1;HPM_P2
2021/11/18 00:19:22;;;;;;;3.95;3.65;;;;;;;;;;4277310;28;20209;-63
2021/11/18 00:21:47;;;;;;;3.45;3.15;;;;;;;;;;4217869;34;20229;-63
2021/11/18 00:24:13;;;;;;;3.90;3.47;;;;;;;;;;4205608;34;20122;-63
2021/11/18 00:26:40;;;;;;;3.42;3.08;;;;;;;;;;4204165;34;20113;-63
2021/11/18 00:29:06;;;;;;;3.78;3.47;;;;;;;;;;4203831;34;20202;-63
2021/11/18 00:31:34;;;;;;;3.80;3.40;;;;;;;;;;4204055;34;20327;-63
2021/11/18 00:34:00;;;;;;;4.05;3.15;;;;;;;;;;4203842;34;20129;-61
2021/11/18 00:36:26;;;;;;;3.62;3.28;;;;;;;;;;4203872;34;20145;-61
2021/11/18 00:38:52;;;;;;;5.45;3.28;;;;;;;;;;4203910;34;20554;-59
2021/11/18 00:41:18;;;;;;;3.28;2.87;;;;;;;;;;4168252;34;20528;-60
2021/11/18 00:43:44;;;;;;;4.72;3.40;;;;;;;;;;4203960;34;20106;-61
2021/11/18 00:46:10;;;;;;;4.37;2.97;;;;;;;;;;4203761;34;20221;-61
2021/11/18 00:48:36;;;;;;;3.40;3.10;;;;;;;;;;4203786;34;20126;-61
2021/11/18 00:51:04;;;;;;;5.50;3.40;;;;;;;;;;4203902;34;20110;-61
2021/11/18 00:53:30;;;;;;;3.42;3.03;;;;;;;;;;4204093;34;20125;-62
2021/11/18 00:55:56;;;;;;;3.20;2.90;;;;;;;;;;4204036;34;20725;-61
2021/11/18 00:58:22;;;;;;;2.90;2.60;;;;;;;;;;4203846;34;20194;-61
2021/11/18 01:00:48;;;;;;;4.87;2.87;;;;;;;;;;4203738;34;20212;-61
2021/11/18 01:03:17;;;;;;;4.20;3.08;;;;;;;;;;4190727;34;20205;-61
2021/11/18 01:05:45;;;;;;;3.10;2.80;;;;;;;;;;4205679;34;20209;-61
2021/11/18 01:08:11;;;;;;;3.00;2.70;;;;;;;;;;4205880;34;20149;-61
2021/11/18 01:10:43;;;;;;;3.15;2.85;;;;;;;;;;4206007;34;20116;-61
2021/11/18 01:13:09;;;;;;;3.00;2.70;;;;;;;;;;4205766;34;20110;-61
2021/11/18 01:15:37;;;;;;;3.30;2.85;;;;;;;;;;4205928;34;20109;-61
2021/11/18 01:18:03;;;;;;;2.92;2.72;;;;;;;;;;4205694;34;20525;-61
2021/11/18 01:20:29;;;;;;;3.20;2.70;;;;;;;;;;4205797;34;20105;-61
2021/11/18 01:22:56;;;;;;;3.03;2.72;;;;;;;;;;4205688;34;20181;-61
2021/11/18 01:25:22;;;;;;;3.30;2.95;;;;;;;;;;4205739;34;20229;-62
2021/11/18 01:27:48;;;;;;;3.17;2.87;;;;;;;;;;4205620;34;20563;-61
2021/11/18 01:30:16;;;;;;;3.28;2.97;;;;;;;;;;4205612;34;20122;-61
2021/11/18 01:32:42;;;;;;;3.53;3.22;;;;;;;;;;4205853;34;20137;-61
2021/11/18 01:35:09;;;;;;;3.00;2.70;;;;;;;;;;4205600;34;20125;-61
2021/11/18 01:37:34;;;;;;;3.60;3.30;;;;;;;;;;4205494;34;20118;-61
2021/11/18 01:40:00;;;;;;;2.97;2.62;;;;;;;;;;4205755;34;20117;-60
2021/11/18 01:42:26;;;;;;;3.15;2.53;;;;;;;;;;4205558;34;20152;-61
2021/11/18 01:44:52;;;;;;;2.92;2.62;;;;;;;;;;4205385;34;20106;-63
2021/11/18 01:47:18;;;;;;;3.00;2.70;;;;;;;;;;4205758;34;20110;-62
2021/11/18 01:49:45;;;;;;;3.05;2.50;;;;;;;;;;4205498;34;20244;-62
2021/11/18 01:52:14;;;;;;;2.75;2.53;;;;;;;;;;4205353;34;20205;-62
2021/11/18 01:54:41;;;;;;;2.87;2.67;;;;;;;;;;4193031;34;20117;-62
2021/11/18 01:57:09;;;;;;;2.70;2.50;;;;;;;;;;4205379;34;20117;-62
2021/11/18 01:59:37;;;;;;;2.83;2.62;;;;;;;;;;4205683;34;20121;-62
2021/11/18 02:02:03;;;;;;;3.67;2.60;;;;;;;;;;4181231;34;20132;-60
2021/11/18 02:04:30;;;;;;;3.10;2.80;;;;;;;;;;4205493;34;20518;-61
2021/11/18 02:07:02;;;;;;;3.28;2.97;;;;;;;;;;4205632;34;20180;-61
2021/11/18 02:09:29;;;;;;;2.60;2.40;;;;;;;;;;4205299;34;20118;-62
2021/11/18 02:12:04;;;;;;;3.03;2.72;;;;;;;;;;4205271;34;20189;-62
2021/11/18 02:14:31;;;;;;;3.10;2.80;;;;;;;;;;4205481;34;20112;-62
2021/11/18 02:17:00;;;;;;;2.70;2.50;;;;;;;;;;4204543;34;20122;-61
2021/11/18 02:19:26;;;;;;;4.07;2.67;;;;;;;;;;4205129;34;20517;-62
2021/11/18 02:21:52;;;;;;;2.47;2.28;;;;;;;;;;4205064;34;20533;-62
2021/11/18 02:24:23;;;;;;;4.60;3.65;;;;;;;;;;4192187;34;20114;-62
2021/11/18 02:26:49;;;;;;;2.58;2.37;;;;;;;;;;4192312;34;20109;-62
2021/11/18 02:29:15;;;;;;;3.10;2.80;;;;;;;;;;4205093;34;20548;-62
2021/11/18 02:31:45;;;;;;;4.20;2.90;;;;;;;;;;4180785;34;20458;-62
2021/11/18 02:34:13;;;;;;;3.33;2.78;;;;;;;;;;4205014;34;20126;-62
2021/11/18 02:36:39;;;;;;;3.10;2.80;;;;;;;;;;4205329;34;20450;-62
2021/11/18 02:39:05;;;;;;;3.00;2.70;;;;;;;;;;4205037;34;20094;-62
2021/11/18 02:41:31;;;;;;;3.87;2.97;;;;;;;;;;4205049;34;20121;-62
2021/11/18 02:43:57;;;;;;;13.02;10.98;;;;;;;;;;4204912;34;20124;-62
2021/11/18 02:46:23;;;;;;;3.60;2.85;;;;;;;;;;4204865;34;20191;-62
2021/11/18 02:48:49;;;;;;;2.87;2.58;;;;;;;;;;4205133;34;20199;-60
2021/11/18 02:51:16;;;;;;;4.50;3.62;;;;;;;;;;4204878;34;20189;-60
2021/11/18 02:53:42;;;;;;;6.55;2.87;;;;;;;;;;4204790;34;20117;-60
2021/11/18 02:56:08;;;;;;;3.05;2.75;;;;;;;;;;4204826;34;20537;-60
2021/11/18 02:58:34;;;;;;;2.90;2.65;;;;;;;;;;4205298;34;20221;-60
2021/11/18 03:01:05;;;;;;;2.95;2.70;;;;;;;;;;4204822;34;20276;-60
2021/11/18 03:03:31;;;;;;;3.12;2.83;;;;;;;;;;4205058;34;20137;-60
2021/11/18 03:05:57;;;;;;;3.00;2.80;;;;;;;;;;4169164;34;20141;-60
2021/11/18 03:08:23;;;;;;;2.78;2.50;;;;;;;;;;4192313;34;20209;-58
2021/11/18 03:10:50;;;;;;;3.85;2.80;;;;;;;;;;4205004;34;20105;-60
2021/11/18 03:13:16;;;;;;;3.15;2.53;;;;;;;;;;4204668;34;20098;-60
2021/11/18 03:15:42;;;;;;;3.40;3.05;;;;;;;;;;4204975;34;20129;-59
2021/11/18 03:18:08;;;;;;;2.97;2.70;;;;;;;;;;4204707;34;20121;-59
2021/11/18 03:20:34;;;;;;;3.17;2.87;;;;;;;;;;4191838;34;20102;-59
2021/11/18 03:23:00;;;;;;;3.72;2.78;;;;;;;;;;4204718;34;20541;-59
2021/11/18 03:25:28;;;;;;;3.30;2.90;;;;;;;;;;4204550;34;20229;-58
2021/11/18 03:27:54;;;;;;;3.00;2.67;;;;;;;;;;4191511;34;20102;-60
2021/11/18 03:30:23;;;;;;;2.90;2.60;;;;;;;;;;4180472;34;20332;-60
2021/11/18 03:32:49;;;;;;;5.20;3.05;;;;;;;;;;4204669;34;20172;-60
2021/11/18 03:35:15;;;;;;;4.47;4.07;;;;;;;;;;4204410;34;20105;-60
2021/11/18 03:37:41;;;;;;;3.40;3.10;;;;;;;;;;4191826;34;20525;-60
2021/11/18 03:40:07;;;;;;;3.33;3.03;;;;;;;;;;4204551;34;20130;-60
2021/11/18 03:42:33;;;;;;;3.03;2.72;;;;;;;;;;4200654;34;20105;-60
2021/11/18 03:44:59;;;;;;;3.10;2.80;;;;;;;;;;4196112;34;20462;-60
2021/11/18 03:47:25;;;;;;;4.03;3.12;;;;;;;;;;4191257;34;20125;-60
2021/11/18 03:49:51;;;;;;;3.87;3.28;;;;;;;;;;4204629;34;20116;-61
2021/11/18 03:52:18;;;;;;;3.40;3.10;;;;;;;;;;4204311;34;20125;-60
2021/11/18 03:54:44;;;;;;;3.53;2.97;;;;;;;;;;4204593;34;20113;-60
2021/11/18 03:57:10;;;;;;;3.85;3.30;;;;;;;;;;4204286;34;20125;-63
2021/11/18 03:59:37;;;;;;;2.95;2.72;;;;;;;;;;4202140;34;20118;-61
2021/11/18 04:02:03;;;;;;;3.00;2.70;;;;;;;;;;4197512;34;20225;-62
2021/11/18 04:04:41;;;;;;;2.80;2.35;;;;;;;;;;4199784;34;20505;-61
2021/11/18 04:07:07;;;;;;;2.50;2.30;;;;;;;;;;4196936;34;20129;-62
2021/11/18 04:09:33;;;;;;;2.40;2.20;;;;;;;;;;4196837;34;20125;-63
2021/11/18 04:11:59;;;;;;;2.30;2.10;;;;;;;;;;4197011;34;20114;-61
2021/11/18 04:14:28;;;;;;;2.40;2.20;;;;;;;;;;4197414;34;20109;-64
2021/11/18 04:16:54;;;;;;;2.00;1.85;;;;;;;;;;4203398;34;20526;-64
2021/11/18 04:19:20;;;;;;;2.42;2.17;;;;;;;;;;4202377;34;20095;-68
2021/11/18 04:21:46;;;;;;;1.80;1.70;;;;;;;;;;4203146;34;20102;-63
2021/11/18 04:24:15;;;;;;;2.30;2.10;;;;;;;;;;4203649;34;20110;-61
2021/11/18 04:26:41;;;;;;;1.98;1.83;;;;;;;;;;4190397;34;20095;-62
2021/11/18 04:29:07;;;;;;;3.20;2.37;;;;;;;;;;4189979;34;20245;-60
2021/11/18 04:31:33;;;;;;;1.87;1.75;;;;;;;;;;4203848;34;20106;-59
2021/11/18 04:33:59;;;;;;;2.10;1.92;;;;;;;;;;4202373;34;20220;-59
2021/11/18 04:36:26;;;;;;;4.37;1.95;;;;;;;;;;4201204;34;20114;-60
2021/11/18 04:38:52;;;;;;;2.67;2.47;;;;;;;;;;4201376;34;20128;-59
2021/11/18 04:41:20;;;;;;;2.22;2.03;;;;;;;;;;4204709;34;20121;-60
2021/11/18 04:43:46;;;;;;;1.77;1.67;;;;;;;;;;4204202;34;20090;-60
2021/11/18 04:46:12;;;;;;;1.60;1.50;;;;;;;;;;4204155;34;20122;-60
2021/11/18 04:48:38;;;;;;;2.25;2.05;;;;;;;;;;4204086;34;20133;-60
2021/11/18 04:51:05;;;;;;;1.87;1.65;;;;;;;;;;4204149;34;20197;-60
2021/11/18 04:53:31;;;;;;;1.62;1.50;;;;;;;;;;4204252;34;20837;-59
2021/11/18 04:55:57;;;;;;;1.87;1.65;;;;;;;;;;4204863;34;20151;-59
2021/11/18 04:58:23;;;;;;;2.20;2.00;;;;;;;;;;4204979;34;20125;-59
2021/11/18 05:00:52;;;;;;;2.03;1.87;;;;;;;;;;4205319;34;20154;-60
2021/11/18 05:03:17;;;;;;;2.40;2.20;;;;;;;;;;4206145;34;20517;-60
2021/11/18 05:05:44;;;;;;;2.40;1.70;;;;;;;;;;4206094;34;20154;-60
2021/11/18 05:08:10;;;;;;;2.17;1.83;;;;;;;;;;4205806;34;20117;-61
2021/11/18 05:10:36;;;;;;;2.12;1.92;;;;;;;;;;4193221;34;20205;-61
2021/11/18 05:13:02;;;;;;;1.87;1.73;;;;;;;;;;4205907;34;20132;-61
2021/11/18 05:15:33;;;;;;;1.55;1.45;;;;;;;;;;4206070;34;20116;-61
2021/11/18 05:17:59;;;;;;;2.00;1.80;;;;;;;;;;4205889;34;20129;-61
2021/11/18 05:20:26;;;;;;;1.67;1.58;;;;;;;;;;4205884;34;20205;-61
2021/11/18 05:22:52;;;;;;;1.67;1.58;;;;;;;;;;4205279;34;20301;-60
2021/11/18 05:25:19;;;;;;;2.85;1.50;;;;;;;;;;4205477;34;20530;-61
2021/11/18 05:27:45;;;;;;;2.47;1.50;;;;;;;;;;4205460;34;20106;-61
2021/11/18 05:30:12;;;;;;;1.60;1.50;;;;;;;;;;4205868;34;20606;-62
2021/11/18 05:32:38;;;;;;;1.92;1.60;;;;;;;;;;4205373;34;20224;-62
2021/11/18 05:35:04;;;;;;;1.87;1.75;;;;;;;;;;4205752;34;20459;-63
2021/11/18 05:37:30;;;;;;;2.20;2.00;;;;;;;;;;4205360;34;20122;-61
2021/11/18 05:39:56;;;;;;;2.45;1.80;;;;;;;;;;4205529;34;20534;-61
2021/11/18 05:42:22;;;;;;;2.15;1.90;;;;;;;;;;4205599;34;20178;-61
2021/11/18 05:44:49;;;;;;;2.50;2.17;;;;;;;;;;4205359;34;20121;-61
2021/11/18 05:47:19;;;;;;;2.30;2.10;;;;;;;;;;4205368;34;20125;-61
2021/11/18 05:49:45;;;;;;;3.37;2.62;;;;;;;;;;4205234;34;20089;-61
2021/11/18 05:52:11;;;;;;;3.40;2.03;;;;;;;;;;4204860;34;20125;-61
2021/11/18 05:54:37;;;;;;;4.37;2.35;;;;;;;;;;4192590;34;20105;-61
2021/11/18 05:57:03;;;;;;;3.15;2.17;;;;;;;;;;4205124;34;20177;-61
2021/11/18 05:59:29;;;;;;;2.72;1.90;;;;;;;;;;4205348;34;20170;-61
2021/11/18 06:01:55;;;;;;;2.50;1.90;;;;;;;;;;4205134;34;20516;-61
2021/11/18 06:04:21;;;;;;;4.53;2.45;;;;;;;;;;4205420;34;20122;-61
2021/11/18 06:06:46;;;;;;;2.22;1.92;;;;;;;;;;4205182;34;20217;-61
2021/11/18 06:09:12;;;;;;;5.53;2.20;;;;;;;;;;4205166;34;20228;-61
2021/11/18 06:11:39;;;;;;;2.17;1.95;;;;;;;;;;4205196;34;20706;-61
2021/11/18 06:14:06;;;;;;;2.53;2.12;;;;;;;;;;4205097;34;20114;-60
2021/11/18 06:16:32;;;;;;;2.55;2.30;;;;;;;;;;4205103;34;20192;-61
2021/11/18 06:19:00;;;;;;;2.22;2.03;;;;;;;;;;4205255;34;20110;-61
2021/11/18 06:21:26;;;;;;;3.10;2.55;;;;;;;;;;4205110;34;20180;-61
2021/11/18 06:23:52;;;;;;;2.70;2.50;;;;;;;;;;4204880;34;20093;-61
2021/11/18 06:26:18;;;;;;;2.58;2.25;;;;;;;;;;4205091;34;20142;-61
2021/11/18 06:28:44;;;;;;;4.95;3.12;;;;;;;;;;4192241;34;20141;-61
2021/11/18 06:31:13;;;;;;;2.60;2.40;;;;;;;;;;4205027;34;20129;-60
2021/11/18 06:33:40;;;;;;;2.62;2.42;;;;;;;;;;4205325;34;20114;-61
2021/11/18 06:36:06;;;;;;;3.42;2.70;;;;;;;;;;4205057;34;20085;-61
2021/11/18 06:38:33;;;;;;;3.25;2.72;;;;;;;;;;4205219;34;20114;-61
2021/11/18 06:40:58;;;;;;;3.37;3.00;;;;;;;;;;4205022;34;20113;-60
2021/11/18 06:43:24;;;;;;;3.20;2.67;;;;;;;;;;4204952;34;20109;-61
2021/11/18 06:45:50;;;;;;;4.15;2.90;;;;;;;;;;4205139;34;20185;-61
2021/11/18 06:48:23;;;;;;;6.53;2.50;;;;;;;;;;4205106;34;20110;-61
2021/11/18 06:50:49;;;;;;;4.12;2.10;;;;;;;;;;4204892;34;20173;-61
2021/11/18 06:53:15;;;;;;;3.83;2.33;;;;;;;;;;4192057;34;20629;-61
2021/11/18 06:55:41;;;;;;;5.20;2.20;;;;;;;;;;4204893;34;20173;-61
2021/11/18 06:58:06;;;;;;;3.15;2.22;;;;;;;;;;4204735;34;20109;-61
2021/11/18 07:00:32;;;;;;;3.80;2.10;;;;;;;;;;4204767;34;20137;-61
2021/11/18 07:02:58;;;;;;;2.50;2.30;;;;;;;;;;4204510;34;20114;-60
2021/11/18 07:05:24;;;;;;;5.25;2.12;;;;;;;;;;4204975;34;20128;-61
2021/11/18 07:07:50;;;;;;;1.92;1.83;;;;;;;;;;4204879;34;20118;-61
2021/11/18 07:10:16;;;;;;;3.17;2.10;;;;;;;;;;4191969;34;20125;-61
2021/11/18 07:12:42;;;;;;;2.25;2.05;;;;;;;;;;4204646;34;20098;-61
2021/11/18 07:15:11;;;;;;;3.10;2.05;;;;;;;;;;4204683;34;20137;-61
2021/11/18 07:17:37;;;;;;;3.72;2.20;;;;;;;;;;4204730;34;20188;-61
2021/11/18 07:20:07;;;;;;;2.42;2.22;;;;;;;;;;4204634;34;20609;-61
2021/11/18 07:22:33;;;;;;;2.22;2.03;;;;;;;;;;4204446;34;20537;-61
2021/11/18 07:24:59;;;;;;;2.42;2.05;;;;;;;;;;4204446;34;20110;-61
2021/11/18 07:27:25;;;;;;;3.72;2.40;;;;;;;;;;4204589;34;20125;-61
2021/11/18 07:29:51;;;;;;;3.35;2.50;;;;;;;;;;4204683;34;20124;-61
2021/11/18 07:32:17;;;;;;;2.62;2.00;;;;;;;;;;4204314;34;20438;-61
2021/11/18 07:34:43;;;;;;;3.10;2.03;;;;;;;;;;4204556;34;20132;-61
2021/11/18 07:37:09;;;;;;;2.30;2.10;;;;;;;;;;4204339;34;20106;-61
2021/11/18 07:39:35;;;;;;;2.20;2.00;;;;;;;;;;4204468;34;20125;-61
2021/11/18 07:42:00;;;;;;;2.35;2.00;;;;;;;;;;4204289;34;20232;-61
2021/11/18 07:44:26;;;;;;;2.35;2.15;;;;;;;;;;4204428;34;20571;-61
2021/11/18 07:46:52;;;;;;;2.60;2.40;;;;;;;;;;4204284;34;20114;-61
2021/11/18 07:49:18;;;;;;;2.33;2.00;;;;;;;;;;4204387;34;20086;-61
2021/11/18 07:51:44;;;;;;;2.90;2.70;;;;;;;;;;4204589;34;20230;-61
2021/11/18 07:54:12;;;;;;;8.65;2.60;;;;;;;;;;4204561;34;20105;-61
2021/11/18 07:56:40;;;;;;;2.62;2.17;;;;;;;;;;4204276;34;20117;-62
2021/11/18 07:59:07;;;;;;;3.87;2.30;;;;;;;;;;4204222;34;20552;-61
2021/11/18 08:01:33;;;;;;;2.80;2.28;;;;;;;;;;4204234;34;20101;-61
2021/11/18 08:03:59;;;;;;;5.40;2.40;;;;;;;;;;4204001;34;20094;-61
2021/11/18 08:06:27;;;;;;;2.90;2.42;;;;;;;;;;4191135;34;20542;-62
2021/11/18 08:08:54;;;;;;;3.62;2.22;;;;;;;;;;4204073;34;20124;-61
2021/11/18 08:11:22;;;;;;;3.33;2.28;;;;;;;;;;4204219;34;20098;-61
2021/11/18 08:13:48;;;;;;;3.30;2.35;;;;;;;;;;4203073;34;20089;-61
2021/11/18 08:16:14;;;;;;;3.05;2.45;;;;;;;;;;4204069;34;20155;-61
2021/11/18 08:18:42;;;;;;;3.28;2.87;;;;;;;;;;4204031;34;20129;-62
2021/11/18 08:21:08;;;;;;;2.50;2.30;;;;;;;;;;4204072;34;20114;-63
2021/11/18 08:23:34;;;;;;;2.50;2.12;;;;;;;;;;4203840;34;20199;-63
2021/11/18 08:26:00;;;;;;;2.58;2.25;;;;;;;;;;4203962;34;20526;-62
2021/11/18 08:28:26;;;;;;;2.97;2.65;;;;;;;;;;4190979;34;20113;-62
2021/11/18 08:30:52;;;;;;;5.82;2.65;;;;;;;;;;4204034;34;20241;-63
2021/11/18 08:33:18;;;;;;;3.12;2.45;;;;;;;;;;4203897;34;20230;-63
2021/11/18 08:35:44;;;;;;;2.75;2.42;;;;;;;;;;4203895;34;20113;-63
2021/11/18 08:38:12;;;;;;;3.47;2.28;;;;;;;;;;4203783;34;20217;-63
2021/11/18 08:40:41;;;;;;;2.90;2.40;;;;;;;;;;4203854;34;20522;-68
2021/11/18 08:43:07;;;;;;;3.67;2.12;;;;;;;;;;4190767;34;20134;-62
2021/11/18 08:45:34;;;;;;;2.20;2.00;;;;;;;;;;4203744;34;20879;-62
2021/11/18 08:47:59;;;;;;;2.65;2.40;;;;;;;;;;4203720;34;20124;-62
2021/11/18 08:50:26;;;;;;;2.45;2.20;;;;;;;;;;4203743;34;20114;-63
2021/11/18 08:52:52;;;;;;;2.67;2.20;;;;;;;;;;4203883;34;20201;-62
2021/11/18 08:55:20;;;;;;;2.40;2.20;;;;;;;;;;4203649;34;20125;-61
2021/11/18 08:57:46;;;;;;;3.00;2.35;;;;;;;;;;4203674;34;20106;-61
2021/11/18 09:00:22;;;;;;;3.83;2.40;;;;;;;;;;4203685;34;20145;-62
2021/11/18 09:02:48;;;;;;;2.78;2.47;;;;;;;;;;4203612;34;20478;-61
2021/11/18 09:05:14;;;;;;;2.42;2.08;;;;;;;;;;4203522;34;20477;-61
2021/11/18 09:07:40;;;;;;;5.32;2.20;;;;;;;;;;4203391;34;20213;-61
2021/11/18 09:10:06;;;;;;;3.05;2.53;;;;;;;;;;4203505;34;20140;-62
2021/11/18 09:12:32;;;;;;;5.25;2.37;;;;;;;;;;4203237;34;20613;-61
2021/11/18 09:14:58;;;;;;;2.95;2.53;;;;;;;;;;4203392;34;20133;-61
2021/11/18 09:17:26;;;;;;;4.15;2.70;;;;;;;;;;4203381;34;20173;-61
2021/11/18 09:19:52;;;;;;;2.65;2.45;;;;;;;;;;4203632;34;20445;-61
2021/11/18 09:22:17;;;;;;;3.05;2.75;;;;;;;;;;4202422;34;20125;-62
2021/11/18 09:24:47;;;;;;;2.87;2.67;;;;;;;;;;4202148;34;20117;-60
2021/11/18 09:27:23;;;;;;;4.45;2.80;;;;;;;;;;4204482;34;20125;-60
2021/11/18 09:29:49;;;;;;;4.25;3.20;;;;;;;;;;4191337;34;20307;-61
2021/11/18 09:32:15;;;;;;;3.12;2.62;;;;;;;;;;4204655;34;20217;-61
2021/11/18 09:34:41;;;;;;;3.65;2.83;;;;;;;;;;4205480;34;20194;-61
2021/11/18 09:37:07;;;;;;;3.30;3.00;;;;;;;;;;4181317;34;20185;-61
2021/11/18 09:39:34;;;;;;;4.35;2.78;;;;;;;;;;4205719;34;20133;-60
2021/11/18 09:42:11;;;;;;;2.50;2.30;;;;;;;;;;4205456;34;20102;-61
2021/11/18 09:45:05;;;;;;;2.85;2.55;;;;;;;;;;4205499;34;20106;-60
2021/11/18 09:47:36;;;;;;;3.42;2.78;;;;;;;;;;4187216;34;20672;-61
2021/11/18 09:50:32;;;;;;;3.50;2.90;;;;;;;;;;4205651;34;20082;-60
2021/11/18 09:53:10;;;;;;;3.70;2.90;;;;;;;;;;4191616;34;20106;-60
2021/11/18 09:55:51;;;;;;;4.18;2.62;;;;;;;;;;4181606;34;20110;-60
2021/11/18 09:58:21;;;;;;;3.30;3.00;;;;;;;;;;4205420;34;20194;-60
2021/11/18 10:01:05;;;;;;;3.03;2.62;;;;;;;;;;4205624;34;20121;-60
2021/11/18 10:03:31;;;;;;;2.97;2.70;;;;;;;;;;4205104;34;20213;-60
2021/11/18 10:06:21;;;;;;;2.97;2.67;;;;;;;;;;4205450;34;20130;-60
2021/11/18 10:08:51;;;;;;;3.25;2.80;;;;;;;;;;4194224;34;20087;-60
2021/11/18 10:11:33;;;;;;;4.50;3.10;;;;;;;;;;4192715;34;20117;-60
2021/11/18 10:14:23;;;;;;;3.65;2.90;;;;;;;;;;4182068;34;20138;-60
2021/11/18 10:17:22;;;;;;;3.05;2.70;;;;;;;;;;4204633;34;20144;-61
2021/11/18 10:20:18;;;;;;;3.53;3.00;;;;;;;;;;4185058;34;20534;-61
2021/11/18 10:22:47;;;;;;;3.15;2.78;;;;;;;;;;4194710;34;20105;-61
2021/11/18 10:25:16;;;;;;;3.75;3.45;;;;;;;;;;4203711;34;20309;-60
2021/11/18 10:27:45;;;;;;;3.17;2.70;;;;;;;;;;4191154;34;20118;-60
2021/11/18 10:30:34;;;;;;;2.92;2.62;;;;;;;;;;4203759;34;20117;-58
2021/11/18 10:33:05;;;;;;;3.83;3.10;;;;;;;;;;4203936;34;20554;-59
2021/11/18 10:35:46;;;;;;;3.10;2.80;;;;;;;;;;4203738;34;20205;-59
2021/11/18 10:38:17;;;;;;;5.87;2.72;;;;;;;;;;4203971;34;20113;-59
2021/11/18 10:40:52;;;;;;;3.67;2.45;;;;;;;;;;4202130;34;20113;-59
2021/11/18 10:43:18;;;;;;;2.60;2.40;;;;;;;;;;4204529;34;20122;-59
2021/11/18 10:45:48;;;;;;;4.87;3.20;;;;;;;;;;4204567;34;20185;-59
2021/11/18 10:48:17;;;;;;;2.90;2.60;;;;;;;;;;4204687;34;20117;-60
2021/11/18 10:50:43;;;;;;;4.55;2.58;;;;;;;;;;4204630;34;20568;-59
2021/11/18 10:53:18;;;;;;;2.95;2.65;;;;;;;;;;4204601;34;20113;-60
2021/11/18 10:55:46;;;;;;;4.65;3.00;;;;;;;;;;4180205;34;20237;-59
2021/11/18 10:58:24;;;;;;;6.90;3.90;;;;;;;;;;4204842;34;20106;-60
2021/11/18 11:00:56;;;;;;;4.87;2.70;;;;;;;;;;4204874;34;20133;-59
2021/11/18 11:03:43;;;;;;;3.20;2.90;;;;;;;;;;4204480;34;20113;-59
2021/11/18 11:06:29;;;;;;;3.17;2.87;;;;;;;;;;4205016;34;20113;-59
2021/11/18 11:09:12;;;;;;;4.15;3.35;;;;;;;;;;4204703;34;20122;-59
2021/11/18 11:12:02;;;;;;;4.78;3.78;;;;;;;;;;4204787;34;20114;-59
2021/11/18 11:14:50;;;;;;;3.87;3.40;;;;;;;;;;4204877;34;20134;-59
2021/11/18 11:17:53;;;;;;;7.00;4.37;;;;;;;;;;4204671;34;20112;-59
2021/11/18 11:20:26;;;;;;;3.78;3.25;;;;;;;;;;4204569;34;20534;-59
2021/11/18 11:23:04;;;;;;;4.75;3.70;;;;;;;;;;4181035;34;20188;-59
2021/11/18 11:26:00;;;;;;;4.82;3.33;;;;;;;;;;4181585;34;20133;-59
2021/11/18 11:28:44;;;;;;;;;;;;;;;;;;4204980;34;20104;-60
2021/11/18 11:31:31;;;;;;;3.03;2.80;;;;;;;;;;4204686;34;20064;-59
2021/11/18 11:34:09;;;;;;;2.85;2.65;;;;;;;;;;4202924;34;20637;-59
2021/11/18 11:36:47;;;;;;;6.82;2.80;;;;;;;;;;4203450;34;20110;-58
2021/11/18 11:39:28;;;;;;;3.35;3.05;;;;;;;;;;4190434;34;20102;-59
2021/11/18 11:42:00;;;;;;;3.47;3.17;;;;;;;;;;4191785;34;20113;-59
2021/11/18 11:44:45;;;;;;;2.97;2.65;;;;;;;;;;4190282;34;20140;-59
2021/11/18 11:47:18;;;;;;;2.85;2.65;;;;;;;;;;4202936;34;20110;-59
2021/11/18 11:50:14;;;;;;;3.47;2.78;;;;;;;;;;4203485;34;20184;-60
2021/11/18 11:52:55;;;;;;;;;;;;;;;;;;4204845;34;20120;-60
2021/11/18 11:55:27;;;;;;;3.42;3.00;;;;;;;;;;4204437;34;20005;-60
2021/11/18 11:58:11;;;;;;;4.78;3.00;;;;;;;;;;4191608;34;20510;-60
2021/11/18 12:01:04;;;;;;;3.65;3.17;;;;;;;;;;4193055;34;20538;-59
2021/11/18 12:04:01;;;;;;;4.45;3.00;;;;;;;;;;4204408;34;20145;-59
2021/11/18 12:06:39;;;;;;;2.97;2.70;;;;;;;;;;4204401;34;20094;-60
2021/11/18 12:09:40;;;;;;;3.67;3.15;;;;;;;;;;4191406;34;20140;-61
2021/11/18 12:12:48;;;;;;;3.35;3.05;;;;;;;;;;4159016;34;20125;-59
2021/11/18 12:15:17;;;;;;;5.70;2.75;;;;;;;;;;4147398;34;20122;-60
2021/11/18 12:18:01;;;;;;;2.35;2.15;;;;;;;;;;4196137;34;20122;-60
2021/11/18 12:20:29;;;;;;;3.20;2.40;;;;;;;;;;4180536;34;20533;-60
2021/11/18 12:23:03;;;;;;;8.18;2.60;;;;;;;;;;4204135;34;20554;-60
2021/11/18 12:25:41;;;;;;;2.70;2.50;;;;;;;;;;4203830;34;20137;-60
2021/11/18 12:28:10;;;;;;;3.30;2.95;;;;;;;;;;4203176;34;20129;-60
2021/11/18 12:31:07;;;;;;;2.58;2.35;;;;;;;;;;4202587;34;20573;-61
2021/11/18 12:33:35;;;;;;;3.95;2.60;;;;;;;;;;4204239;34;20190;-61
2021/11/18 12:36:04;;;;;;;3.05;2.50;;;;;;;;;;4204272;34;20133;-58
2021/11/18 12:38:37;;;;;;;2.85;2.60;;;;;;;;;;4204022;34;20130;-59
2021/11/18 12:41:34;;;;;;;3.78;3.08;;;;;;;;;;4203977;34;20502;-61
2021/11/18 12:44:35;;;;;;;3.80;3.37;;;;;;;;;;4203666;34;20090;-60
2021/11/18 12:47:08;;;;;;;5.90;3.35;;;;;;;;;;4194195;34;20117;-59
2021/11/18 12:49:55;;;;;;;5.30;3.92;;;;;;;;;;4204203;34;20111;-58
2021/11/18 12:52:33;;;;;;;5.05;4.45;;;;;;;;;;4203729;34;20633;-58
2021/11/18 12:55:14;;;;;;;5.07;4.57;;;;;;;;;;4203773;34;20102;-59
2021/11/18 12:58:21;;;;;;;6.22;4.35;;;;;;;;;;4203763;34;20438;-59
2021/11/18 13:00:49;;;;;;;6.28;5.68;;;;;;;;;;4205164;34;20201;-59
2021/11/18 13:03:35;;;;;;;6.85;6.18;;;;;;;;;;4205794;34;20117;-59
2021/11/18 13:06:02;;;;;;;7.12;5.57;;;;;;;;;;4206062;34;20126;-59
2021/11/18 13:08:41;;;;;;;8.18;5.82;;;;;;;;;;4205791;34;20126;-59
2021/11/18 13:11:25;;;;;;;5.57;5.03;;;;;;;;;;4206011;34;20465;-60
2021/11/18 13:14:19;;;;;;;6.30;5.40;;;;;;;;;;4205764;34;20105;-59
2021/11/18 13:16:48;;;;;;;6.20;5.30;;;;;;;;;;4205841;34;20106;-59
2021/11/18 13:19:32;;;;;;;6.87;5.15;;;;;;;;;;4205602;34;20113;-59
2021/11/18 13:22:11;;;;;;;6.80;5.40;;;;;;;;;;4193761;34;20133;-59
2021/11/18 13:24:48;;;;;;;7.68;6.37;;;;;;;;;;4205759;34;20208;-59
2021/11/18 13:27:37;;;;;;;8.15;7.35;;;;;;;;;;4205542;34;20110;-58
2021/11/18 13:30:06;;;;;;;12.37;8.48;;;;;;;;;;4205768;34;20213;-58
2021/11/18 13:32:32;;;;;;;7.03;6.32;;;;;;;;;;4205561;34;20286;-59
2021/11/18 13:35:01;;;;;;;9.15;8.05;;;;;;;;;;4205957;34;20125;-59
2021/11/18 13:37:39;;;;;;;7.97;7.18;;;;;;;;;;4192869;34;20232;-60
2021/11/18 13:40:13;;;;;;;9.18;7.80;;;;;;;;;;4205942;34;20528;-58
2021/11/18 13:42:46;;;;;;;7.90;7.10;;;;;;;;;;4205658;34;20190;-57
2021/11/18 13:45:26;;;;;;;8.88;8.02;;;;;;;;;;4205815;34;20554;-59
2021/11/18 13:48:04;;;;;;;7.22;6.53;;;;;;;;;;4205595;34;20125;-59
2021/11/18 13:50:44;;;;;;;7.03;6.35;;;;;;;;;;4205581;34;20181;-59
2021/11/18 13:53:24;;;;;;;7.15;6.22;;;;;;;;;;4193674;34;20098;-60
2021/11/18 13:56:06;;;;;;;7.75;5.90;;;;;;;;;;4204253;34;20178;-58
2021/11/18 13:58:50;;;;;;;5.00;4.50;;;;;;;;;;4205220;34;21100;-59
2021/11/18 14:01:19;;;;;;;5.82;5.30;;;;;;;;;;4203883;34;20125;-59
2021/11/18 14:03:49;;;;;;;5.32;4.82;;;;;;;;;;4203527;34;20113;-59
2021/11/18 14:06:17;;;;;;;6.12;5.50;;;;;;;;;;4203617;34;20457;-60
2021/11/18 14:08:49;;;;;;;7.15;5.57;;;;;;;;;;4192445;34;20202;-60
2021/11/18 14:11:20;;;;;;;8.55;7.65;;;;;;;;;;4203280;34;20206;-60
2021/11/18 14:13:57;;;;;;;7.90;6.90;;;;;;;;;;4180683;34;20567;-60
2021/11/18 14:16:30;;;;;;;6.10;5.50;;;;;;;;;;4204025;34;20194;-60
2021/11/18 14:19:03;;;;;;;6.28;5.60;;;;;;;;;;4203809;34;20182;-60
2021/11/18 14:21:48;;;;;;;6.37;4.87;;;;;;;;;;4204843;34;20196;-60
2021/11/18 14:24:33;;;;;;;7.07;5.40;;;;;;;;;;4205284;34;20186;-59
2021/11/18 14:27:07;;;;;;;5.18;4.07;;;;;;;;;;4205237;34;20229;-60
2021/11/18 14:29:44;;;;;;;5.78;5.20;;;;;;;;;;4203854;34;20125;-59
2021/11/18 14:32:33;;;;;;;6.60;5.82;;;;;;;;;;4205131;34;20194;-59
2021/11/18 14:35:21;;;;;;;6.78;6.07;;;;;;;;;;4204190;34;20559;-59
2021/11/18 14:37:56;;;;;;;8.18;6.62;;;;;;;;;;4205354;34;20114;-60
2021/11/18 14:40:35;;;;;;;7.10;6.30;;;;;;;;;;4205053;34;20090;-60
2021/11/18 14:43:24;;;;;;;7.55;6.05;;;;;;;;;;4204959;34;20091;-61
2021/11/18 14:46:15;;;;;;;7.80;6.78;;;;;;;;;;4203951;34;20127;-60
2021/11/18 14:48:52;;;;;;;7.50;6.80;;;;;;;;;;4205076;34;20098;-60
2021/11/18 14:51:17;;;;;;;7.25;6.50;;;;;;;;;;4203891;34;20499;-61
2021/11/18 14:54:01;;;;;;;8.23;7.03;;;;;;;;;;4204960;34;20285;-60
2021/11/18 14:56:33;;;;;;;7.80;7.00;;;;;;;;;;4204908;34;20117;-61
2021/11/18 14:59:01;;;;;;;9.05;7.18;;;;;;;;;;4204838;34;20102;-61
2021/11/18 15:01:42;;;;;;;8.27;7.20;;;;;;;;;;4205122;34;20124;-60
2021/11/18 15:04:29;;;;;;;7.90;7.10;;;;;;;;;;4204782;34;20096;-60
2021/11/18 15:06:58;;;;;;;8.38;7.47;;;;;;;;;;4204887;34;20106;-60
2021/11/18 15:09:29;;;;;;;8.13;6.97;;;;;;;;;;4204679;34;20512;-59
2021/11/18 15:12:11;;;;;;;7.85;6.85;;;;;;;;;;4204784;34;20549;-61
2021/11/18 15:14:37;;;;;;;11.90;8.52;;;;;;;;;;4205035;34;20293;-60
2021/11/18 15:17:04;;;;;;;9.45;8.25;;;;;;;;;;4204679;34;20129;-60
2021/11/18 15:19:33;;;;;;;9.25;8.35;;;;;;;;;;4204601;34;20189;-60
2021/11/18 15:21:59;;;;;;;11.70;8.20;;;;;;;;;;4204947;34;20292;-60
2021/11/18 15:24:28;;;;;;;10.43;8.00;;;;;;;;;;4191408;34;20116;-60